createdAt,value
2018-02-12T00:02:22.153Z,4.90
2018-02-12T00:04:49.162Z,5.37
2018-02-12T00:07:16.075Z,5.53
2018-02-12T00:09:43.036Z,7.70
2018-02-12T00:12:12.283Z,4.90
2018-02-12T00:14:50.485Z,5.40
2018-02-12T00:17:32.211Z,5.73
2018-02-12T00:20:02.273Z,6.67
2018-02-12T00:22:29.100Z,5.80
2018-02-12T00:24:56.101Z,6.47
2018-02-12T00:27:23.100Z,5.97
2018-02-12T00:29:49.821Z,5.30
2018-02-12T00:32:17.691Z,6.23
2018-02-12T00:34:44.406Z,5.93
2018-02-12T00:37:12.006Z,7.50
2018-02-12T00:39:38.851Z,7.00
2018-02-12T00:42:06.106Z,6.20
2018-02-12T00:44:32.853Z,6.70
2018-02-12T00:46:59.607Z,6.33
2018-02-12T00:49:26.340Z,7.17
2018-02-12T00:51:52.993Z,6.23
2018-02-12T00:54:19.841Z,5.97
2018-02-12T00:56:47.408Z,5.90
2018-02-12T00:59:14.251Z,7.57
2018-02-12T01:01:41.056Z,8.90
2018-02-12T01:04:08.078Z,6.90
2018-02-12T01:06:37.036Z,7.40
2018-02-12T01:09:04.626Z,7.13
2018-02-12T01:11:32.277Z,8.20
2018-02-12T01:14:06.583Z,7.37
2018-02-12T01:16:37.833Z,7.80
2018-02-12T01:19:04.896Z,8.03
2018-02-12T01:21:31.754Z,7.50
2018-02-12T01:23:59.500Z,7.70
2018-02-12T01:26:26.983Z,9.07
2018-02-12T01:28:54.353Z,8.20
2018-02-12T01:31:21.071Z,7.40
2018-02-12T01:33:48.471Z,9.73
2018-02-12T01:36:15.096Z,8.13
2018-02-12T01:38:41.867Z,12.10
2018-02-12T01:41:08.912Z,15.93
2018-02-12T01:43:35.590Z,8.67
2018-02-12T01:46:02.612Z,10.47
2018-02-12T01:48:29.328Z,12.13
2018-02-12T01:50:56.372Z,11.57
2018-02-12T01:53:30.609Z,12.40
2018-02-12T01:55:58.268Z,10.70
2018-02-12T01:58:25.334Z,12.20
2018-02-12T02:00:52.286Z,10.60
2018-02-12T02:03:19.338Z,13.13
2018-02-12T02:05:46.804Z,12.27
2018-02-12T02:08:13.716Z,11.93
2018-02-12T02:10:40.714Z,12.40
2018-02-12T02:13:07.474Z,11.10
2018-02-12T02:15:34.190Z,13.37
2018-02-12T02:18:01.144Z,10.70
2018-02-12T02:20:27.922Z,11.37
2018-02-12T02:22:54.935Z,12.37
2018-02-12T02:25:21.607Z,12.20
2018-02-12T02:27:49.084Z,13.17
2018-02-12T02:30:15.827Z,12.00
2018-02-12T02:32:42.592Z,15.73
2018-02-12T02:35:11.107Z,16.90
2018-02-12T02:37:37.903Z,14.83
2018-02-12T02:40:04.665Z,16.70
2018-02-12T02:42:31.439Z,16.47
2018-02-12T02:44:59.317Z,15.13
2018-02-12T02:47:26.998Z,16.03
2018-02-12T02:49:53.697Z,16.27
2018-02-12T02:52:21.504Z,21.37
2018-02-12T02:54:48.235Z,23.33
2018-02-12T02:57:15.631Z,22.53
2018-02-12T02:59:43.277Z,21.83
2018-02-12T03:02:10.655Z,21.67
2018-02-12T03:04:37.632Z,25.83
2018-02-12T03:07:04.753Z,32.23
2018-02-12T03:09:32.300Z,33.07
2018-02-12T03:11:59.738Z,32.37
2018-02-12T03:14:26.901Z,30.13
2018-02-12T03:16:54.346Z,29.53
2018-02-12T03:19:21.257Z,36.03
2018-02-12T03:21:48.925Z,35.47
2018-02-12T03:24:15.587Z,27.40
2018-02-12T03:26:43.645Z,26.70
2018-02-12T03:29:10.299Z,28.63
2018-02-12T03:31:36.989Z,28.43
2018-02-12T03:34:03.742Z,31.57
2018-02-12T03:36:31.176Z,30.60
2018-02-12T03:38:57.848Z,26.93
2018-02-12T03:41:24.686Z,31.80
2018-02-12T03:43:52.201Z,28.60
2018-02-12T03:46:19.050Z,35.03
2018-02-12T03:48:45.899Z,34.00
2018-02-12T03:51:12.858Z,35.47
2018-02-12T03:53:39.831Z,32.27
2018-02-12T03:56:06.649Z,30.53
2018-02-12T03:58:33.492Z,35.90
2018-02-12T04:01:00.978Z,32.07
2018-02-12T04:03:27.798Z,35.70
2018-02-12T04:05:54.556Z,28.43
2018-02-12T04:08:21.405Z,32.60
2018-02-12T04:10:48.231Z,30.27
2018-02-12T04:13:15.631Z,35.20
2018-02-12T04:15:42.463Z,32.77
2018-02-12T04:18:09.196Z,33.23
2018-02-12T04:20:35.828Z,32.63
2018-02-12T04:23:03.294Z,38.57
2018-02-12T04:25:30.918Z,31.43
2018-02-12T04:27:59.704Z,37.23
2018-02-12T04:30:26.416Z,36.03
2018-02-12T04:32:53.674Z,37.03
2018-02-12T04:35:21.781Z,37.37
2018-02-12T04:37:48.482Z,44.33
2018-02-12T04:40:15.340Z,39.03
2018-02-12T04:42:42.092Z,37.43
2018-02-12T04:45:08.941Z,42.63
2018-02-12T04:47:35.748Z,44.70
2018-02-12T04:50:02.423Z,36.13
2018-02-12T04:52:30.119Z,44.60
2018-02-12T04:54:57.849Z,41.47
2018-02-12T04:57:24.718Z,42.70
2018-02-12T04:59:51.759Z,44.43
2018-02-12T05:02:19.371Z,42.53
2018-02-12T05:04:46.023Z,42.60
2018-02-12T05:07:12.677Z,44.97
2018-02-12T05:09:39.680Z,46.87
2018-02-12T05:12:06.458Z,46.43
2018-02-12T05:14:34.498Z,39.10
2018-02-12T05:17:02.418Z,47.17
2018-02-12T05:19:29.210Z,50.83
2018-02-12T05:21:55.959Z,45.93
2018-02-12T05:24:23.127Z,50.73
2018-02-12T05:26:50.382Z,57.37
2018-02-12T05:29:17.129Z,49.50
2018-02-12T05:31:43.862Z,48.30
2018-02-12T05:34:10.621Z,45.27
2018-02-12T05:36:37.677Z,56.23
2018-02-12T05:39:04.422Z,48.03
2018-02-12T05:41:31.147Z,50.47
2018-02-12T05:43:58.999Z,48.97
2018-02-12T05:46:25.786Z,46.77
2018-02-12T05:48:52.743Z,51.63
2018-02-12T05:51:19.585Z,49.03
2018-02-12T05:53:46.331Z,50.97
2018-02-12T05:56:13.281Z,48.70
2018-02-12T05:58:40.540Z,49.90
2018-02-12T06:01:07.243Z,51.13
2018-02-12T06:03:35.080Z,53.97
2018-02-12T06:06:01.801Z,56.43
2018-02-12T06:08:28.558Z,53.87
2018-02-12T06:10:58.257Z,55.20
2018-02-12T06:13:25.723Z,47.70
2018-02-12T06:15:53.738Z,50.27
2018-02-12T06:18:22.803Z,49.10
2018-02-12T06:20:50.059Z,55.07
2018-02-12T06:23:18.616Z,44.67
2018-02-12T06:25:47.331Z,56.93
2018-02-12T06:28:16.029Z,51.50
2018-02-12T06:30:43.492Z,48.50
2018-02-12T06:33:10.647Z,51.67
2018-02-12T06:35:40.457Z,57.73
2018-02-12T06:38:08.848Z,50.47
2018-02-12T06:40:38.241Z,58.33
2018-02-12T06:43:06.536Z,56.70
2018-02-12T06:45:38.771Z,56.40
2018-02-12T06:48:11.727Z,57.33
2018-02-12T06:50:41.918Z,50.90
2018-02-12T06:53:08.872Z,53.50
2018-02-12T06:55:36.022Z,55.10
2018-02-12T06:58:02.776Z,54.20
2018-02-12T07:00:29.519Z,58.23
2018-02-12T07:02:56.470Z,58.47
2018-02-12T07:05:23.727Z,59.73
2018-02-12T07:07:50.875Z,51.60
2018-02-12T07:10:17.735Z,56.30
2018-02-12T07:12:44.467Z,59.07
2018-02-12T07:15:11.736Z,60.20
2018-02-12T07:17:38.980Z,57.03
2018-02-12T07:20:05.738Z,59.67
2018-02-12T07:22:32.610Z,54.60
2018-02-12T07:24:59.941Z,50.67
2018-02-12T07:27:27.102Z,62.23
2018-02-12T07:29:54.362Z,58.37
2018-02-12T07:32:21.844Z,56.53
2018-02-12T07:34:48.619Z,56.03
2018-02-12T07:37:15.338Z,54.83
2018-02-12T07:39:42.161Z,58.77
2018-02-12T07:42:08.909Z,48.40
2018-02-12T07:44:35.859Z,55.73
2018-02-12T07:47:09.772Z,53.10
2018-02-12T07:49:37.539Z,47.27
2018-02-12T07:52:04.388Z,54.87
2018-02-12T07:54:31.094Z,52.93
2018-02-12T07:56:59.016Z,48.10
2018-02-12T07:59:26.063Z,41.83
2018-02-12T08:01:52.910Z,40.60
2018-02-12T08:04:26.779Z,44.20
2018-02-12T08:06:53.540Z,46.27
2018-02-12T08:09:26.815Z,49.93
2018-02-12T08:11:54.120Z,40.40
2018-02-12T08:14:20.764Z,43.90
2018-02-12T08:16:48.121Z,37.17
2018-02-12T08:19:14.909Z,42.37
2018-02-12T08:21:41.621Z,41.30
2018-02-12T08:24:08.367Z,44.37
2018-02-12T08:26:35.313Z,39.83
2018-02-12T08:29:02.163Z,43.53
2018-02-12T08:31:29.524Z,38.40
2018-02-12T08:33:56.368Z,38.50
2018-02-12T08:36:23.425Z,39.13
2018-02-12T08:38:51.409Z,43.87
2018-02-12T08:41:18.758Z,40.77
2018-02-12T08:43:48.071Z,43.10
2018-02-12T08:48:56.494Z,36.60
2018-02-12T08:51:23.351Z,38.67
2018-02-12T08:53:52.414Z,34.93
2018-02-12T08:56:20.443Z,30.63
2018-02-12T08:58:47.279Z,32.70
2018-02-12T09:01:14.220Z,46.73
2018-02-12T09:03:41.371Z,33.30
2018-02-12T09:06:08.433Z,33.00
2018-02-12T09:08:35.089Z,32.77
2018-02-12T09:11:01.938Z,29.97
2018-02-12T09:13:29.488Z,30.23
2018-02-12T09:15:56.435Z,30.60
2018-02-12T09:18:23.210Z,36.77
2018-02-12T09:20:50.032Z,28.60
2018-02-12T09:23:16.763Z,24.97
2018-02-12T09:25:50.660Z,24.23
2018-02-12T09:28:17.397Z,28.40
2018-02-12T09:30:44.180Z,32.73
2018-02-12T09:33:11.341Z,27.97
2018-02-12T09:35:38.066Z,32.90
2018-02-12T09:38:07.699Z,26.97
2018-02-12T09:40:36.919Z,25.27
2018-02-12T09:43:04.851Z,29.20
2018-02-12T09:45:32.102Z,31.30
2018-02-12T09:47:59.795Z,31.10
2018-02-12T09:50:27.667Z,31.77
2018-02-12T09:52:54.513Z,31.33
2018-02-12T09:55:21.467Z,35.13
2018-02-12T09:57:48.620Z,34.70
2018-02-12T10:00:15.367Z,30.73
2018-02-12T10:02:42.334Z,33.43
2018-02-12T10:05:09.141Z,33.77
2018-02-12T10:07:36.126Z,33.40
2018-02-12T10:10:03.301Z,29.53
2018-02-12T10:12:30.544Z,33.27
2018-02-12T10:14:57.693Z,30.47
2018-02-12T10:17:24.949Z,28.30
2018-02-12T10:19:51.992Z,26.53
2018-02-12T10:22:19.565Z,28.70
2018-02-12T10:24:46.512Z,27.93
2018-02-12T10:27:13.365Z,26.43
2018-02-12T10:29:40.319Z,26.23
2018-02-12T10:32:07.269Z,23.73
2018-02-12T10:34:34.221Z,29.67
2018-02-12T10:37:01.066Z,27.43
2018-02-12T10:39:29.063Z,28.73
2018-02-12T10:41:55.900Z,27.77
2018-02-12T10:44:22.786Z,24.33
2018-02-12T10:46:50.251Z,26.07
2018-02-12T10:49:17.780Z,24.63
2018-02-12T10:51:44.608Z,26.53
2018-02-12T10:54:11.525Z,29.23
2018-02-12T10:56:38.560Z,27.27
2018-02-12T10:59:05.770Z,28.30
2018-02-12T11:01:33.242Z,28.90
2018-02-12T11:04:00.084Z,27.73
2018-02-12T11:06:27.348Z,23.67
2018-02-12T11:08:54.114Z,23.73
2018-02-12T11:11:20.900Z,25.77
2018-02-12T11:13:48.403Z,20.83
2018-02-12T11:16:15.350Z,21.27
2018-02-12T11:18:42.111Z,23.43
2018-02-12T11:21:11.081Z,20.67
2018-02-12T11:23:38.436Z,19.57
2018-02-12T11:26:05.618Z,23.07
2018-02-12T11:28:32.400Z,21.50
2018-02-12T11:31:01.255Z,18.23
2018-02-12T11:33:28.076Z,21.50
2018-02-12T11:35:54.894Z,20.47
2018-02-12T11:38:22.014Z,24.70
2018-02-12T11:40:49.470Z,19.60
2018-02-12T11:43:17.034Z,22.33
2018-02-12T11:45:43.939Z,19.77
2018-02-12T11:48:11.550Z,23.30
2018-02-12T11:50:38.506Z,19.60
2018-02-12T11:55:54.570Z,20.97
2018-02-12T11:58:23.919Z,20.57
2018-02-12T12:00:51.681Z,18.13
2018-02-12T12:03:20.087Z,19.13
2018-02-12T12:05:47.948Z,16.10
2018-02-12T12:08:15.240Z,20.77
2018-02-12T12:10:43.502Z,15.00
2018-02-12T12:13:12.679Z,18.73
2018-02-12T12:15:41.776Z,15.60
2018-02-12T12:18:09.379Z,21.30
2018-02-12T12:20:36.803Z,15.67
2018-02-12T12:23:03.555Z,20.53
2018-02-12T12:25:30.607Z,20.70
2018-02-12T12:27:57.508Z,18.00
2018-02-12T12:30:25.016Z,18.13
2018-02-12T12:32:52.209Z,18.10
2018-02-12T12:35:19.129Z,16.93
2018-02-12T12:37:45.804Z,19.93
2018-02-12T12:40:13.857Z,19.00
2018-02-12T12:42:40.590Z,14.30
2018-02-12T12:45:07.853Z,15.93
2018-02-12T12:47:34.711Z,18.80
2018-02-12T12:50:01.550Z,18.37
2018-02-12T12:52:28.504Z,21.40
2018-02-12T12:54:56.857Z,19.33
2018-02-12T12:57:23.833Z,21.80
2018-02-12T12:59:50.565Z,19.00
2018-02-12T13:02:17.645Z,14.43
2018-02-12T13:04:44.492Z,17.30
2018-02-12T13:07:11.441Z,17.33
2018-02-12T13:09:38.565Z,13.23
2018-02-12T13:12:05.340Z,15.37
2018-02-12T13:14:33.924Z,12.33
2018-02-12T13:17:00.877Z,14.57
2018-02-12T13:19:28.550Z,13.80
2018-02-12T13:21:55.391Z,12.17
2018-02-12T13:24:22.242Z,12.80
2018-02-12T13:26:49.290Z,13.07
2018-02-12T13:29:16.278Z,12.73
2018-02-12T13:31:43.305Z,11.27
2018-02-12T13:34:10.156Z,10.80
2018-02-12T13:36:37.092Z,10.10
2018-02-12T13:39:04.150Z,8.70
2018-02-12T13:41:31.202Z,6.33
2018-02-12T13:43:57.984Z,8.40
2018-02-12T13:46:25.747Z,5.87
2018-02-12T13:48:53.606Z,8.53
2018-02-12T13:51:20.336Z,4.87
2018-02-12T13:53:47.240Z,7.27
2018-02-12T13:56:14.140Z,7.17
2018-02-12T13:58:40.994Z,5.90
2018-02-12T14:01:07.692Z,5.23
2018-02-12T14:03:34.474Z,7.27
2018-02-12T14:06:02.346Z,7.03
2018-02-12T14:08:29.311Z,5.80
2018-02-12T14:10:56.358Z,5.17
2018-02-12T14:13:23.307Z,9.60
2018-02-12T14:15:50.151Z,4.47
2018-02-12T14:18:17.639Z,10.97
2018-02-12T14:20:44.472Z,3.60
2018-02-12T14:23:11.328Z,8.87
2018-02-12T14:25:38.389Z,6.37
2018-02-12T14:28:06.545Z,6.10
2018-02-12T14:30:33.916Z,7.20
2018-02-12T14:33:01.063Z,7.07
2018-02-12T14:35:28.013Z,4.77
2018-02-12T14:37:55.076Z,4.40
2018-02-12T14:40:22.256Z,3.10
2018-02-12T14:42:50.098Z,6.53
2018-02-12T14:45:16.946Z,5.67
2018-02-12T14:47:44.248Z,4.90
2018-02-12T14:50:12.243Z,5.00
2018-02-12T14:52:39.836Z,3.20
2018-02-12T14:55:06.695Z,8.13
2018-02-12T14:57:33.570Z,7.23
2018-02-12T15:00:01.386Z,5.53
2018-02-12T15:02:28.485Z,9.53
2018-02-12T15:04:55.447Z,6.30
2018-02-12T15:07:22.154Z,6.13
2018-02-12T15:09:49.011Z,6.30
2018-02-12T15:12:15.865Z,8.13
2018-02-12T15:14:42.816Z,7.87
2018-02-12T15:17:09.760Z,12.00
2018-02-12T15:19:36.711Z,9.17
2018-02-12T15:22:03.666Z,5.63
2018-02-12T15:24:30.717Z,10.43
2018-02-12T15:26:58.592Z,7.60
2018-02-12T15:29:25.437Z,8.23
2018-02-12T15:31:52.297Z,7.60
2018-02-12T15:34:19.140Z,7.97
2018-02-12T15:36:46.096Z,4.93
2018-02-12T15:39:12.927Z,17.87
2018-02-12T15:41:39.670Z,10.03
2018-02-12T15:44:07.754Z,7.10
2018-02-12T15:46:34.705Z,9.30
2018-02-12T15:49:01.566Z,7.87
2018-02-12T15:51:28.422Z,8.17
2018-02-12T15:53:55.251Z,6.87
2018-02-12T15:56:22.104Z,13.73
2018-02-12T15:58:49.070Z,12.47
2018-02-12T16:01:16.014Z,10.63
2018-02-12T16:03:44.745Z,6.90
2018-02-12T16:06:11.471Z,6.93
2018-02-12T16:08:38.908Z,10.13
2018-02-12T16:11:05.634Z,7.00
2018-02-12T16:13:32.499Z,5.13
2018-02-12T16:15:59.453Z,8.43
2018-02-12T16:18:26.163Z,7.70
2018-02-12T16:20:53.055Z,7.03
2018-02-12T16:23:20.712Z,10.37
2018-02-12T16:25:47.391Z,5.27
2018-02-12T16:28:14.214Z,8.00
2018-02-12T16:30:40.964Z,10.00
2018-02-12T16:33:09.851Z,8.17
2018-02-12T16:35:37.725Z,5.20
2018-02-12T16:38:06.693Z,5.13
2018-02-12T16:40:36.936Z,5.50
2018-02-12T16:43:04.813Z,8.10
2018-02-12T16:45:32.475Z,7.60
2018-02-12T16:47:59.742Z,5.90
2018-02-12T16:50:29.752Z,8.03
2018-02-12T16:52:59.808Z,6.70
2018-02-12T16:55:27.959Z,8.13
2018-02-12T16:57:56.034Z,8.23
2018-02-12T17:00:22.988Z,4.57
2018-02-12T17:02:49.723Z,5.93
2018-02-12T17:05:16.991Z,6.47
2018-02-12T17:07:44.023Z,8.97
2018-02-12T17:10:11.900Z,10.60
2018-02-12T17:12:39.479Z,5.37
2018-02-12T17:15:06.737Z,10.37
2018-02-12T17:17:33.448Z,6.43
2018-02-12T17:20:00.335Z,6.10
2018-02-12T17:22:27.906Z,9.63
2018-02-12T17:24:54.643Z,7.87
2018-02-12T17:27:21.793Z,5.40
2018-02-12T17:29:49.162Z,7.47
2018-02-12T17:32:16.458Z,6.97
2018-02-12T17:34:43.575Z,4.47
2018-02-12T17:37:10.531Z,5.53
2018-02-12T17:39:37.378Z,9.57
2018-02-12T17:42:04.326Z,10.27
2018-02-12T17:44:31.176Z,11.03
2018-02-12T17:46:59.152Z,10.53
2018-02-12T17:49:25.899Z,8.90
2018-02-12T17:51:52.734Z,8.17
2018-02-12T17:54:19.487Z,12.13
2018-02-12T17:56:46.339Z,7.13
2018-02-12T17:59:13.191Z,6.30
2018-02-12T18:01:39.934Z,4.40
2018-02-12T18:04:07.189Z,5.83
2018-02-12T18:06:34.974Z,11.40
2018-02-12T18:09:01.805Z,4.87
2018-02-12T18:11:28.474Z,9.50
2018-02-12T18:13:55.241Z,5.77
2018-02-12T18:16:22.766Z,5.80
2018-02-12T18:18:50.634Z,11.37
2018-02-12T18:21:20.120Z,7.20
2018-02-12T18:23:47.239Z,8.27
2018-02-12T18:26:15.586Z,3.23
2018-02-12T18:28:43.058Z,7.50
2018-02-12T18:31:10.200Z,6.53
2018-02-12T18:33:37.320Z,9.50
2018-02-12T18:36:04.928Z,9.80
2018-02-12T18:38:31.702Z,8.33
2018-02-12T18:40:58.624Z,7.33
2018-02-12T18:43:26.556Z,4.73
2018-02-12T18:45:55.432Z,8.33
2018-02-12T18:48:22.242Z,7.30
2018-02-12T18:50:59.360Z,7.20
2018-02-12T18:53:31.801Z,8.30
2018-02-12T18:56:01.495Z,6.93
2018-02-12T18:58:28.583Z,8.07
2018-02-12T19:00:56.807Z,5.73
2018-02-12T19:03:26.188Z,6.53
2018-02-12T19:05:54.542Z,6.90
2018-02-12T19:08:21.813Z,7.93
2018-02-12T19:10:53.207Z,6.70
2018-02-12T19:13:26.997Z,6.70
2018-02-12T19:15:57.738Z,6.57
2018-02-12T19:18:32.603Z,4.77
2018-02-12T19:21:01.827Z,8.07
2018-02-12T19:23:28.986Z,9.73
2018-02-12T19:25:57.450Z,10.33
2018-02-12T19:28:25.645Z,4.90
2018-02-12T19:30:53.876Z,6.60
2018-02-12T19:33:21.943Z,5.53
2018-02-12T19:35:49.549Z,9.20
2018-02-12T19:38:16.820Z,4.37
2018-02-12T19:40:43.681Z,7.57
2018-02-12T19:43:11.441Z,3.90
2018-02-12T19:45:39.925Z,5.20
2018-02-12T19:48:06.771Z,6.97
2018-02-12T19:50:33.727Z,7.37
2018-02-12T19:53:00.576Z,7.60
2018-02-12T19:55:27.527Z,9.87
2018-02-12T19:57:54.278Z,9.07
2018-02-12T20:00:21.057Z,10.37
2018-02-12T20:02:48.790Z,8.23
2018-02-12T20:05:15.738Z,7.20
2018-02-12T20:07:42.689Z,7.27
2018-02-12T20:10:09.642Z,5.77
2018-02-12T20:12:36.596Z,6.63
2018-02-12T20:15:03.745Z,7.13
2018-02-12T20:17:32.654Z,6.57
2018-02-12T20:19:59.434Z,5.27
2018-02-12T20:22:28.751Z,6.57
2018-02-12T20:24:56.770Z,5.67
2018-02-12T20:27:24.748Z,7.33
2018-02-12T20:29:53.152Z,4.77
2018-02-12T20:32:20.969Z,5.27
2018-02-12T20:34:51.356Z,5.90
2018-02-12T20:37:20.172Z,3.53
2018-02-12T20:39:47.677Z,3.10
2018-02-12T20:42:14.946Z,4.13
2018-02-12T20:44:41.897Z,2.80
2018-02-12T20:47:09.136Z,5.37
2018-02-12T20:49:36.312Z,2.87
2018-02-12T20:52:04.387Z,3.10
2018-02-12T20:54:32.175Z,3.27
2018-02-12T20:56:59.830Z,1.60
2018-02-12T20:59:27.693Z,2.07
2018-02-12T21:01:55.667Z,1.50
2018-02-12T21:04:22.422Z,2.50
2018-02-12T21:06:49.884Z,1.67
2018-02-12T21:09:16.725Z,2.20
2018-02-12T21:11:43.686Z,2.80
2018-02-12T21:14:12.921Z,2.13
2018-02-12T21:16:39.827Z,1.40
2018-02-12T21:19:06.884Z,1.40
2018-02-12T21:21:34.355Z,1.57
2018-02-12T21:24:01.197Z,1.40
2018-02-12T21:26:28.148Z,2.77
2018-02-12T21:28:54.977Z,1.97
2018-02-12T21:31:22.736Z,2.30
2018-02-12T21:33:50.226Z,1.90
2018-02-12T21:36:16.975Z,1.63
2018-02-12T21:38:45.155Z,1.03
2018-02-12T21:41:11.903Z,2.33
2018-02-12T21:43:38.647Z,1.90
2018-02-12T21:46:05.495Z,2.40
2018-02-12T21:48:32.650Z,1.00
2018-02-12T21:51:00.513Z,1.87
2018-02-12T21:53:27.581Z,1.13
2018-02-12T21:55:54.319Z,1.10
2018-02-12T21:58:21.346Z,1.43
2018-02-12T22:00:48.846Z,3.27
2018-02-12T22:03:16.103Z,1.77
2018-02-12T22:05:42.954Z,3.37
2018-02-12T22:08:10.103Z,1.50
2018-02-12T22:10:37.255Z,0.97
2018-02-12T22:13:04.511Z,1.87
2018-02-12T22:15:31.463Z,3.63
2018-02-12T22:17:58.214Z,2.07
2018-02-12T22:20:25.785Z,2.10
2018-02-12T22:22:52.728Z,2.50
2018-02-12T22:25:19.572Z,2.60
2018-02-12T22:27:46.527Z,1.13
2018-02-12T22:30:13.277Z,3.60
2018-02-12T22:32:40.230Z,3.00
2018-02-12T22:35:07.276Z,1.87
2018-02-12T22:37:34.126Z,1.57
2018-02-12T22:40:01.374Z,1.20
2018-02-12T22:42:28.334Z,3.20
2018-02-12T22:44:55.700Z,4.30
2018-02-12T22:47:22.642Z,2.27
2018-02-12T22:49:50.003Z,2.13
2018-02-12T22:52:17.671Z,1.90
2018-02-12T22:54:44.625Z,1.57
2018-02-12T22:57:11.474Z,2.57
2018-02-12T22:59:38.628Z,1.37
2018-02-12T23:02:05.457Z,1.73
2018-02-12T23:04:32.325Z,1.17
2018-02-12T23:06:59.479Z,2.13
2018-02-12T23:09:26.546Z,2.37
2018-02-12T23:11:53.694Z,1.57
2018-02-12T23:14:20.949Z,1.87
2018-02-12T23:16:54.526Z,1.10
2018-02-12T23:19:21.506Z,1.70
2018-02-12T23:21:48.663Z,1.53
2018-02-12T23:24:16.430Z,1.60
2018-02-12T23:26:43.787Z,1.50
2018-02-12T23:29:10.739Z,3.00
2018-02-12T23:31:38.100Z,2.90
2018-02-12T23:34:05.366Z,2.90
2018-02-12T23:36:32.522Z,3.23
2018-02-12T23:38:59.771Z,3.13
2018-02-12T23:41:26.824Z,1.63
2018-02-12T23:43:53.775Z,3.83
2018-02-12T23:46:20.634Z,1.37
2018-02-12T23:48:48.598Z,1.43
2018-02-12T23:51:15.454Z,5.00
2018-02-12T23:53:42.500Z,2.13
2018-02-12T23:56:09.350Z,1.83
2018-02-12T23:58:37.019Z,2.27
